createdAt,value
2023-02-14T00:01:12.951Z,27.57
2023-02-14T00:03:40.283Z,26.60
2023-02-14T00:06:13.806Z,27.43
2023-02-14T00:08:44.378Z,29.77
2023-02-14T00:11:12.882Z,30.27
2023-02-14T00:13:40.019Z,27.93
2023-02-14T00:16:07.296Z,28.33
2023-02-14T00:18:52.648Z,27.17
2023-02-14T00:21:19.683Z,26.87
2023-02-14T00:23:46.753Z,26.80
2023-02-14T00:26:15.382Z,28.17
2023-02-14T00:28:42.897Z,26.17
2023-02-14T00:31:10.239Z,19.77
2023-02-14T00:33:37.844Z,18.93
2023-02-14T00:36:07.297Z,19.43
2023-02-14T00:38:35.785Z,21.87
2023-02-14T00:41:03.469Z,21.43
2023-02-14T00:43:30.782Z,20.87
2023-02-14T00:45:57.938Z,22.40
2023-02-14T00:48:25.216Z,24.00
2023-02-14T00:50:52.361Z,25.43
2023-02-14T00:53:19.413Z,25.73
2023-02-14T00:55:47.088Z,25.33
2023-02-14T00:58:14.205Z,24.80
2023-02-14T01:00:41.267Z,23.87
2023-02-14T01:03:08.322Z,25.03
2023-02-14T01:05:35.330Z,22.77
2023-02-14T01:08:03.112Z,21.37
2023-02-14T01:10:30.130Z,19.33
2023-02-14T01:12:57.214Z,21.83
2023-02-14T01:15:24.203Z,21.23
2023-02-14T01:17:51.230Z,21.43
2023-02-14T01:20:18.436Z,25.00
2023-02-14T01:22:45.538Z,26.93
2023-02-14T01:25:12.600Z,26.83
2023-02-14T01:27:39.623Z,25.40
2023-02-14T01:30:08.008Z,24.77
2023-02-14T01:32:35.569Z,25.53
2023-02-14T01:35:02.658Z,26.00
2023-02-14T01:37:30.687Z,26.50
2023-02-14T01:40:02.541Z,28.07
2023-02-14T01:42:29.639Z,27.77
2023-02-14T01:45:21.668Z,27.30
2023-02-14T01:47:54.688Z,26.53
2023-02-14T01:50:32.918Z,26.47
2023-02-14T01:53:05.888Z,26.60
2023-02-14T01:55:37.705Z,28.13
2023-02-14T01:58:37.720Z,27.97
2023-02-14T02:01:06.055Z,27.33
2023-02-14T02:03:54.944Z,28.97
2023-02-14T02:06:40.615Z,27.00
2023-02-14T02:09:40.868Z,28.17
2023-02-14T02:12:07.936Z,29.00
2023-02-14T02:14:35.420Z,26.97
2023-02-14T02:17:20.572Z,28.13
2023-02-14T02:20:33.997Z,28.73
2023-02-14T02:23:27.934Z,28.53
2023-02-14T02:26:22.347Z,27.80
2023-02-14T02:29:26.267Z,26.90
2023-02-14T02:32:26.792Z,26.73
2023-02-14T02:35:31.921Z,27.83
2023-02-14T02:38:19.599Z,28.13
2023-02-14T02:41:38.625Z,27.27
2023-02-14T02:44:43.135Z,28.43
2023-02-14T02:47:34.687Z,26.53
2023-02-14T02:50:43.734Z,27.03
2023-02-14T02:53:41.281Z,26.93
2023-02-14T02:56:44.106Z,25.10
2023-02-14T02:59:23.855Z,25.70
2023-02-14T03:02:17.711Z,27.60
2023-02-14T03:04:54.523Z,26.40
2023-02-14T03:07:36.424Z,25.97
2023-02-14T03:10:06.676Z,24.70
2023-02-14T03:12:33.645Z,23.93
2023-02-14T03:15:03.442Z,24.87
2023-02-14T03:17:37.659Z,24.33
2023-02-14T03:20:37.894Z,24.83
2023-02-14T03:23:21.980Z,23.60
2023-02-14T03:26:01.170Z,22.57
2023-02-14T03:28:46.365Z,24.80
2023-02-14T03:31:56.132Z,25.37
2023-02-14T03:34:35.498Z,25.17
2023-02-14T03:37:22.759Z,25.43
2023-02-14T03:40:02.315Z,24.60
2023-02-14T03:42:38.019Z,25.10
2023-02-14T03:45:09.675Z,25.97
2023-02-14T03:47:38.303Z,26.17
2023-02-14T03:50:17.393Z,27.30
2023-02-14T03:52:46.829Z,27.50
2023-02-14T03:55:20.285Z,28.97
2023-02-14T03:57:56.027Z,27.33
2023-02-14T04:00:23.438Z,28.70
2023-02-14T04:02:56.377Z,27.70
2023-02-14T04:05:27.619Z,27.83
2023-02-14T04:07:58.102Z,26.73
2023-02-14T04:10:26.483Z,27.37
2023-02-14T04:12:53.562Z,29.13
2023-02-14T04:15:20.605Z,29.57
2023-02-14T04:18:06.030Z,30.43
2023-02-14T04:20:34.145Z,28.93
2023-02-14T04:23:03.327Z,25.23
2023-02-14T04:25:31.096Z,21.83
2023-02-14T04:27:58.075Z,23.27
2023-02-14T04:30:25.331Z,24.53
2023-02-14T04:32:52.431Z,26.47
2023-02-14T04:35:19.370Z,24.83
2023-02-14T04:37:46.459Z,27.60
2023-02-14T04:40:17.554Z,27.60
2023-02-14T04:42:46.082Z,26.17
2023-02-14T04:45:13.321Z,28.73
2023-02-14T04:47:40.316Z,27.23
2023-02-14T04:50:08.161Z,28.07
2023-02-14T04:52:35.158Z,26.80
2023-02-14T04:55:04.584Z,26.17
2023-02-14T04:57:31.742Z,25.43
2023-02-14T04:59:58.822Z,27.90
2023-02-14T05:02:26.179Z,28.53
2023-02-14T05:04:53.207Z,29.57
2023-02-14T05:07:20.213Z,28.40
2023-02-14T05:09:47.272Z,27.07
2023-02-14T05:12:15.955Z,29.10
2023-02-14T05:14:43.327Z,28.63
2023-02-14T05:17:10.308Z,30.10
2023-02-14T05:19:37.227Z,30.97
2023-02-14T05:22:04.473Z,29.93
2023-02-14T05:24:31.454Z,29.90
2023-02-14T05:26:58.451Z,29.50
2023-02-14T05:29:25.522Z,28.07
2023-02-14T05:31:52.601Z,27.83
2023-02-14T05:34:21.342Z,27.40
2023-02-14T05:36:48.848Z,26.80
2023-02-14T05:39:15.872Z,26.93
2023-02-14T05:41:42.997Z,24.77
2023-02-14T05:44:10.137Z,24.83
2023-02-14T05:46:37.273Z,26.40
2023-02-14T05:49:04.289Z,24.67
2023-02-14T05:51:31.380Z,25.00
2023-02-14T05:54:00.129Z,22.53
2023-02-14T05:56:27.645Z,24.43
2023-02-14T05:58:54.713Z,24.37
2023-02-14T06:01:21.769Z,27.73
2023-02-14T06:03:48.769Z,26.07
2023-02-14T06:06:15.849Z,27.13
2023-02-14T06:08:42.864Z,28.57
2023-02-14T06:11:09.917Z,27.37
2023-02-14T06:13:36.859Z,27.60
2023-02-14T06:16:05.097Z,25.93
2023-02-14T06:18:32.071Z,26.70
2023-02-14T06:20:59.338Z,28.97
2023-02-14T06:23:29.405Z,26.73
2023-02-14T06:25:56.431Z,27.30
2023-02-14T06:28:23.432Z,26.20
2023-02-14T06:30:50.592Z,26.53
2023-02-14T06:33:17.716Z,25.47
2023-02-14T06:35:44.762Z,26.47
2023-02-14T06:38:11.765Z,25.57
2023-02-14T06:40:38.799Z,25.63
2023-02-14T06:43:06.199Z,24.77
2023-02-14T06:45:33.292Z,26.93
2023-02-14T06:48:00.436Z,29.20
2023-02-14T06:50:27.554Z,28.50
2023-02-14T06:52:54.664Z,30.53
2023-02-14T06:55:21.612Z,28.67
2023-02-14T06:57:48.609Z,32.43
2023-02-14T07:00:16.095Z,29.97
2023-02-14T07:02:45.250Z,29.63
2023-02-14T07:05:12.273Z,27.97
2023-02-14T07:07:39.217Z,29.40
2023-02-14T07:10:07.146Z,29.50
2023-02-14T07:12:34.889Z,30.93
2023-02-14T07:15:02.089Z,29.90
2023-02-14T07:17:29.103Z,31.73
2023-02-14T07:19:56.322Z,32.83
2023-02-14T07:22:23.304Z,31.77
2023-02-14T07:24:50.354Z,30.07
2023-02-14T07:27:17.470Z,32.03
2023-02-14T07:29:44.513Z,32.37
2023-02-14T07:32:11.564Z,32.63
2023-02-14T07:34:38.556Z,32.30
2023-02-14T07:37:05.528Z,33.03
2023-02-14T07:39:32.503Z,31.53
2023-02-14T07:41:59.481Z,31.33
2023-02-14T07:44:27.128Z,32.83
2023-02-14T07:46:54.095Z,33.33
2023-02-14T07:49:21.249Z,31.53
2023-02-14T07:51:48.607Z,32.77
2023-02-14T07:54:15.601Z,33.73
2023-02-14T07:56:42.640Z,34.93
2023-02-14T07:59:09.596Z,37.07
2023-02-14T08:01:36.668Z,34.43
2023-02-14T08:04:03.844Z,35.20
2023-02-14T08:06:30.806Z,32.73
2023-02-14T08:08:57.781Z,35.13
2023-02-14T08:11:43.006Z,36.17
2023-02-14T08:14:10.124Z,37.63
2023-02-14T08:16:38.325Z,37.73
2023-02-14T08:19:05.547Z,43.00
2023-02-14T08:21:32.725Z,42.13
2023-02-14T08:23:59.768Z,41.57
2023-02-14T08:26:26.804Z,37.63
2023-02-14T08:28:54.354Z,32.57
2023-02-14T08:31:36.859Z,30.47
2023-02-14T08:34:07.584Z,29.27
2023-02-14T08:36:35.369Z,26.13
2023-02-14T08:39:04.864Z,24.90
2023-02-14T08:41:32.707Z,25.70
2023-02-14T08:43:59.920Z,26.23
2023-02-14T08:46:27.689Z,24.90
2023-02-14T08:48:56.060Z,24.90
2023-02-14T08:51:23.647Z,25.63
2023-02-14T08:53:53.117Z,24.47
2023-02-14T08:56:22.639Z,25.63
2023-02-14T08:58:53.479Z,25.40
2023-02-14T09:01:20.835Z,24.43
2023-02-14T09:03:47.963Z,24.50
2023-02-14T09:06:17.547Z,25.47
2023-02-14T09:08:45.463Z,24.43
2023-02-14T09:11:24.676Z,24.77
2023-02-14T09:13:53.596Z,24.40
2023-02-14T09:16:22.572Z,24.17
2023-02-14T09:18:51.685Z,24.73
2023-02-14T09:21:27.898Z,24.83
2023-02-14T09:23:55.338Z,26.10
2023-02-14T09:26:22.670Z,25.47
2023-02-14T09:28:49.802Z,25.40
2023-02-14T09:31:22.881Z,25.53
2023-02-14T09:33:51.972Z,25.77
2023-02-14T09:36:19.099Z,24.80
2023-02-14T09:38:46.520Z,25.87
2023-02-14T09:42:03.197Z,25.37
2023-02-14T09:44:41.957Z,24.43
2023-02-14T09:47:27.010Z,26.43
2023-02-14T09:49:55.898Z,25.90
2023-02-14T09:52:28.626Z,25.27
2023-02-14T09:55:01.506Z,26.33
2023-02-14T09:58:15.991Z,25.93
2023-02-14T10:01:05.446Z,27.10
2023-02-14T10:04:18.825Z,25.33
2023-02-14T10:06:48.147Z,26.50
2023-02-14T10:09:47.413Z,27.00
2023-02-14T10:12:28.977Z,26.83
2023-02-14T10:15:01.004Z,28.23
2023-02-14T10:17:41.256Z,27.80
2023-02-14T10:20:39.270Z,29.23
2023-02-14T10:23:32.914Z,28.97
2023-02-14T10:26:04.398Z,30.23
2023-02-14T10:28:34.190Z,30.13
2023-02-14T10:31:55.859Z,31.47
2023-02-14T10:34:36.181Z,30.20
2023-02-14T10:37:15.488Z,31.07
2023-02-14T10:40:07.039Z,30.53
2023-02-14T10:43:08.179Z,29.53
2023-02-14T10:45:46.976Z,29.20
2023-02-14T10:48:34.127Z,29.70
2023-02-14T10:51:36.243Z,30.17
2023-02-14T10:54:22.868Z,30.73
2023-02-14T10:57:00.714Z,28.87
2023-02-14T10:59:46.943Z,30.20
2023-02-14T11:02:17.474Z,31.53
2023-02-14T11:04:47.425Z,32.40
2023-02-14T11:07:18.770Z,30.77
2023-02-14T11:09:46.074Z,30.70
2023-02-14T11:12:32.620Z,31.80
2023-02-14T11:15:13.944Z,30.80
2023-02-14T11:17:42.468Z,30.80
2023-02-14T11:20:18.666Z,31.33
2023-02-14T11:22:46.453Z,31.60
2023-02-14T11:25:28.889Z,31.87
2023-02-14T11:28:10.419Z,31.80
2023-02-14T11:30:42.844Z,31.77
2023-02-14T11:33:30.878Z,31.40
2023-02-14T11:35:58.538Z,31.65
2023-02-14T11:38:38.068Z,33.20
2023-02-14T11:41:12.230Z,31.83
2023-02-14T11:43:44.606Z,31.48
2023-02-14T11:46:20.888Z,30.90
2023-02-14T11:49:07.294Z,31.00
2023-02-14T11:51:40.316Z,32.10
2023-02-14T11:54:28.847Z,31.88
2023-02-14T11:57:11.910Z,31.55
2023-02-14T11:59:38.804Z,32.03
2023-02-14T12:02:24.670Z,32.63
2023-02-14T12:05:07.472Z,32.22
2023-02-14T12:07:38.294Z,32.72
2023-02-14T12:10:16.361Z,34.03
2023-02-14T12:13:22.031Z,34.35
2023-02-14T12:15:58.405Z,32.90
2023-02-14T12:19:07.546Z,33.47
2023-02-14T12:22:04.818Z,33.67
2023-02-14T12:24:48.886Z,34.53
2023-02-14T12:27:52.156Z,35.15
2023-02-14T12:30:23.339Z,33.67
2023-02-14T12:32:53.615Z,34.35
2023-02-14T12:36:07.838Z,33.97
2023-02-14T12:39:05.478Z,37.72
2023-02-14T12:42:04.512Z,34.53
2023-02-14T12:44:59.331Z,33.80
2023-02-14T12:47:56.912Z,35.08
2023-02-14T12:50:51.572Z,34.63
2023-02-14T12:53:42.569Z,34.33
2023-02-14T12:56:46.019Z,34.83
2023-02-14T12:59:22.863Z,33.70
2023-02-14T13:02:05.417Z,34.70
2023-02-14T13:04:54.295Z,34.92
2023-02-14T13:07:56.124Z,34.75
2023-02-14T13:10:49.859Z,32.80
2023-02-14T13:14:04.672Z,34.28
2023-02-14T13:16:55.445Z,33.15
2023-02-14T13:19:50.239Z,33.63
2023-02-14T13:22:23.082Z,34.58
2023-02-14T13:24:55.874Z,33.60
2023-02-14T13:27:32.466Z,34.72
2023-02-14T13:30:31.041Z,33.28
2023-02-14T13:33:28.346Z,35.08
2023-02-14T13:36:00.969Z,34.42
2023-02-14T13:38:31.821Z,33.88
2023-02-14T13:41:01.254Z,34.50
2023-02-14T13:43:50.172Z,34.95
2023-02-14T13:46:20.548Z,34.20
2023-02-14T13:49:37.663Z,34.78
2023-02-14T13:52:06.542Z,35.13
2023-02-14T13:54:41.046Z,33.97
2023-02-14T13:57:36.559Z,34.60
2023-02-14T14:00:22.435Z,36.45
2023-02-14T14:02:54.367Z,35.33
2023-02-14T14:05:49.865Z,34.13
2023-02-14T14:08:23.418Z,36.15
2023-02-14T14:10:57.177Z,34.47
2023-02-14T14:13:42.440Z,36.13
2023-02-14T14:16:27.421Z,35.10
2023-02-14T14:19:21.137Z,34.60
2023-02-14T14:22:10.358Z,33.20
2023-02-14T14:24:51.795Z,35.22
2023-02-14T14:27:24.957Z,35.20
2023-02-14T14:30:00.524Z,35.95
2023-02-14T14:32:38.578Z,36.17
2023-02-14T14:35:23.879Z,35.03
2023-02-14T14:37:58.447Z,35.13
2023-02-14T14:40:34.929Z,35.78
2023-02-14T14:43:24.485Z,35.73
2023-02-14T14:45:53.332Z,35.73
2023-02-14T14:48:40.129Z,36.63
2023-02-14T14:51:09.952Z,34.60
2023-02-14T14:53:56.568Z,35.37
2023-02-14T14:56:33.745Z,34.97
2023-02-14T14:59:28.692Z,35.00
2023-02-14T15:01:56.499Z,36.63
2023-02-14T15:04:33.731Z,35.73
2023-02-14T15:07:41.990Z,36.20
2023-02-14T15:10:28.349Z,34.87
2023-02-14T15:13:17.490Z,35.80
2023-02-14T15:15:51.442Z,33.80
2023-02-14T15:18:20.438Z,35.20
2023-02-14T15:20:52.181Z,35.33
2023-02-14T15:23:23.132Z,35.20
2023-02-14T15:25:50.755Z,36.20
2023-02-14T15:28:34.184Z,34.70
2023-02-14T15:31:07.799Z,36.20
2023-02-14T15:33:36.246Z,35.20
2023-02-14T15:36:08.716Z,36.60
2023-02-14T15:38:40.611Z,36.83
2023-02-14T15:41:08.310Z,36.87
2023-02-14T15:43:37.886Z,37.37
2023-02-14T15:46:41.902Z,36.10
2023-02-14T15:49:14.109Z,35.80
2023-02-14T15:51:42.387Z,36.40
2023-02-14T15:54:23.717Z,37.33
2023-02-14T15:56:53.025Z,37.80
2023-02-14T15:59:29.658Z,37.77
2023-02-14T16:02:32.112Z,36.63
2023-02-14T16:05:21.846Z,37.90
2023-02-14T16:08:30.945Z,35.03
2023-02-14T16:11:13.659Z,36.07
2023-02-14T16:13:47.320Z,34.07
2023-02-14T16:16:15.626Z,37.23
2023-02-14T16:18:49.529Z,36.17
2023-02-14T16:21:25.816Z,36.03
2023-02-14T16:24:07.861Z,34.53
2023-02-14T16:26:40.523Z,36.73
2023-02-14T16:29:11.269Z,32.70
2023-02-14T16:32:15.118Z,34.63
2023-02-14T16:34:41.902Z,35.97
2023-02-14T16:37:23.171Z,35.90
2023-02-14T16:39:57.723Z,36.00
2023-02-14T16:42:25.029Z,35.77
2023-02-14T16:44:53.426Z,34.43
2023-02-14T16:47:21.603Z,33.10
2023-02-14T16:49:50.614Z,36.20
2023-02-14T16:52:23.434Z,37.60
2023-02-14T16:54:50.693Z,34.77
2023-02-14T16:57:30.889Z,38.43
2023-02-14T16:59:57.912Z,35.63
2023-02-14T17:02:28.437Z,38.77
2023-02-14T17:04:55.658Z,38.53
2023-02-14T17:07:22.885Z,41.10
2023-02-14T17:09:58.399Z,37.73
2023-02-14T17:12:31.098Z,38.70
2023-02-14T17:15:06.816Z,39.90
2023-02-14T17:17:36.248Z,39.27
2023-02-14T17:20:05.892Z,38.33
2023-02-14T17:22:34.257Z,36.93
2023-02-14T17:25:01.212Z,37.83
2023-02-14T17:27:28.213Z,37.13
2023-02-14T17:29:55.212Z,36.27
2023-02-14T17:32:22.352Z,36.27
2023-02-14T17:34:49.475Z,37.73
2023-02-14T17:37:18.893Z,39.63
2023-02-14T17:39:46.236Z,40.30
2023-02-14T17:42:13.284Z,40.80
2023-02-14T17:44:40.568Z,38.87
2023-02-14T17:47:07.684Z,39.77
2023-02-14T17:49:34.636Z,39.10
2023-02-14T17:52:01.752Z,36.93
2023-02-14T17:54:28.695Z,37.73
2023-02-14T17:56:55.773Z,37.07
2023-02-14T17:59:22.785Z,37.60
2023-02-14T18:01:49.781Z,35.97
2023-02-14T18:04:16.799Z,38.77
2023-02-14T18:06:43.828Z,39.87
2023-02-14T18:09:10.905Z,37.57
2023-02-14T18:11:40.241Z,37.93
2023-02-14T18:14:07.268Z,40.77
2023-02-14T18:16:37.745Z,39.57
2023-02-14T18:19:06.866Z,36.20
2023-02-14T18:21:36.078Z,38.80
2023-02-14T18:24:04.238Z,39.67
2023-02-14T18:26:31.511Z,39.53
2023-02-14T18:28:58.704Z,42.40
2023-02-14T18:31:26.719Z,48.80
2023-02-14T18:33:53.951Z,43.10
2023-02-14T18:36:25.671Z,42.53
2023-02-14T18:38:54.775Z,41.90
2023-02-14T18:41:22.659Z,39.83
2023-02-14T18:43:50.216Z,41.30
2023-02-14T18:46:27.408Z,41.40
2023-02-14T18:48:56.205Z,41.90
2023-02-14T18:51:27.458Z,42.67
2023-02-14T18:53:56.784Z,41.57
2023-02-14T18:56:33.631Z,39.73
2023-02-14T18:59:07.746Z,41.33
2023-02-14T19:01:42.849Z,43.63
2023-02-14T19:04:12.296Z,43.93
2023-02-14T19:06:41.861Z,42.33
2023-02-14T19:09:12.547Z,42.43
2023-02-14T19:11:39.907Z,44.40
2023-02-14T19:14:10.180Z,43.33
2023-02-14T19:16:43.754Z,44.77
2023-02-14T19:19:11.291Z,44.70
2023-02-14T19:21:38.389Z,47.77
2023-02-14T19:24:07.168Z,45.60
2023-02-14T19:26:40.735Z,45.60
2023-02-14T19:29:15.533Z,43.20
2023-02-14T19:31:49.475Z,42.80
2023-02-14T19:34:20.231Z,41.80
2023-02-14T19:36:48.283Z,41.40
2023-02-14T19:39:15.854Z,41.77
2023-02-14T19:41:42.884Z,40.13
2023-02-14T19:44:13.879Z,41.53
2023-02-14T19:46:42.760Z,43.03
2023-02-14T19:49:15.267Z,41.97
2023-02-14T19:51:42.543Z,41.70
2023-02-14T19:54:10.377Z,43.83
2023-02-14T19:56:42.191Z,42.33
2023-02-14T19:59:20.528Z,43.60
2023-02-14T20:01:54.752Z,43.13
2023-02-14T20:04:25.670Z,41.00
2023-02-14T20:06:53.203Z,44.40
2023-02-14T20:09:22.469Z,44.10
2023-02-14T20:11:58.195Z,43.83
2023-02-14T20:14:47.110Z,42.90
2023-02-14T20:17:19.493Z,43.73
2023-02-14T20:19:49.508Z,45.23
2023-02-14T20:22:17.008Z,41.57
2023-02-14T20:24:44.357Z,43.13
2023-02-14T20:27:12.161Z,44.00
2023-02-14T20:29:43.377Z,45.03
2023-02-14T20:32:12.626Z,47.53
2023-02-14T20:34:40.126Z,46.97
2023-02-14T20:37:07.153Z,46.97
2023-02-14T20:39:35.906Z,48.37
2023-02-14T20:42:04.059Z,47.40
2023-02-14T20:44:31.620Z,44.60
2023-02-14T20:46:58.824Z,45.23
2023-02-14T20:49:28.718Z,44.97
2023-02-14T20:51:56.140Z,46.23
2023-02-14T20:54:34.428Z,48.37
2023-02-14T20:57:01.379Z,45.90
2023-02-14T20:59:28.964Z,45.07
2023-02-14T21:01:58.608Z,47.10
2023-02-14T21:04:25.661Z,49.00
2023-02-14T21:06:52.643Z,47.60
2023-02-14T21:09:20.783Z,48.07
2023-02-14T21:11:47.990Z,46.87
2023-02-14T21:14:17.305Z,45.60
2023-02-14T21:16:44.316Z,45.37
2023-02-14T21:19:11.292Z,43.73
2023-02-14T21:21:38.825Z,46.10
2023-02-14T21:24:14.544Z,47.07
2023-02-14T21:26:42.610Z,45.73
2023-02-14T21:29:10.712Z,47.30
2023-02-14T21:31:39.523Z,46.33
2023-02-14T21:34:06.573Z,44.77
2023-02-14T21:36:37.989Z,41.53
2023-02-14T21:39:06.793Z,41.40
2023-02-14T21:41:35.832Z,39.33
2023-02-14T21:44:04.275Z,40.27
2023-02-14T21:46:35.897Z,42.27
2023-02-14T21:49:23.446Z,44.43
2023-02-14T21:51:50.579Z,40.90
2023-02-14T21:54:18.020Z,38.30
2023-02-14T21:56:45.255Z,35.77
2023-02-14T21:59:12.876Z,35.67
2023-02-14T22:01:42.293Z,35.07
2023-02-14T22:04:12.242Z,33.37
2023-02-14T22:06:41.680Z,32.30
2023-02-14T22:09:11.066Z,33.23
2023-02-14T22:11:38.254Z,33.77
2023-02-14T22:14:05.560Z,33.33
2023-02-14T22:16:32.604Z,33.70
2023-02-14T22:18:59.585Z,34.80
2023-02-14T22:21:27.297Z,35.23
2023-02-14T22:23:55.369Z,35.13
2023-02-14T22:26:35.430Z,34.97
2023-02-14T22:29:03.657Z,36.03
2023-02-14T22:31:36.259Z,38.60
2023-02-14T22:34:06.037Z,38.27
2023-02-14T22:36:33.557Z,37.63
2023-02-14T22:39:00.820Z,35.87
2023-02-14T22:41:28.468Z,37.13
2023-02-14T22:43:55.699Z,37.93
2023-02-14T22:46:28.636Z,38.43
2023-02-14T22:48:57.610Z,36.00
2023-02-14T22:51:32.113Z,35.93
2023-02-14T22:54:02.485Z,36.10
2023-02-14T22:56:39.698Z,38.33
2023-02-14T22:59:17.004Z,38.77
2023-02-14T23:01:45.789Z,39.27
2023-02-14T23:04:15.952Z,36.53
2023-02-14T23:06:43.823Z,33.07
2023-02-14T23:09:12.908Z,39.63
2023-02-14T23:11:42.377Z,38.03
2023-02-14T23:14:31.757Z,38.83
2023-02-14T23:17:17.333Z,37.10
2023-02-14T23:20:03.887Z,36.73
2023-02-14T23:22:40.668Z,36.60
2023-02-14T23:25:11.199Z,36.93
2023-02-14T23:27:43.061Z,36.17
2023-02-14T23:30:14.706Z,34.90
2023-02-14T23:32:42.054Z,36.00
2023-02-14T23:35:10.142Z,34.77
2023-02-14T23:37:37.383Z,33.37
2023-02-14T23:40:05.269Z,34.53
2023-02-14T23:42:32.289Z,33.67
2023-02-14T23:45:19.190Z,35.27
2023-02-14T23:47:46.176Z,36.20
2023-02-14T23:50:13.123Z,36.10
2023-02-14T23:52:41.753Z,35.10
2023-02-14T23:55:09.541Z,33.00
2023-02-14T23:57:37.373Z,28.90
